Time,TemperatureF,DewpointF,PressureIn,WindDirection,WindDirectionDegrees,WindSpeedMPH,WindSpeedGustMPH,Humidity,HourlyPrecipIn,Conditions,Clouds,dailyrainin,SolarRadiationWatts/m^2,SoftwareType,DateUTC
2013-04-27 00:02:00,53.0,25.0,-100.00,WSW,251,3.0,4.0,34,0.00,,,0.00,0.000000,,2013-04-27 06:02:00,
2013-04-27 00:12:00,53.0,25.0,-100.00,WSW,251,3.0,4.0,34,0.00,,,0.00,0.000000,,2013-04-27 06:12:00,
2013-04-27 01:32:00,51.0,24.0,-100.00,WSW,253,2.0,4.0,35,-99.99,,,0.00,0.000000,,2013-04-27 07:32:00,
2013-04-27 01:42:00,51.0,24.0,-100.00,WSW,253,2.0,4.0,35,-99.99,,,0.00,0.000000,,2013-04-27 07:42:00,
2013-04-27 01:52:00,51.0,24.0,-100.00,WSW,253,2.0,4.0,35,-99.99,,,0.00,0.000000,,2013-04-27 07:52:00,
2013-04-27 02:01:00,51.0,24.0,-100.00,WSW,253,2.0,4.0,35,-99.99,,,0.00,0.000000,,2013-04-27 08:01:00,
2013-04-27 02:11:00,51.0,24.0,-100.00,WSW,253,2.0,4.0,35,-99.99,,,0.00,0.000000,,2013-04-27 08:11:00,
2013-04-27 02:33:00,50.0,24.0,-100.00,SW,228,3.0,7.0,36,0.00,,,0.00,0.000000,,2013-04-27 08:33:00,
2013-04-27 02:42:00,50.0,24.0,-100.00,SW,228,3.0,7.0,36,0.00,,,0.00,0.000000,,2013-04-27 08:42:00,
2013-04-27 02:52:00,50.0,24.0,-100.00,SW,228,3.0,7.0,36,0.00,,,0.00,0.000000,,2013-04-27 08:52:00,
2013-04-27 03:01:00,50.0,24.0,-100.00,SW,228,3.0,7.0,36,0.00,,,0.00,0.000000,,2013-04-27 09:01:00,
2013-04-27 03:11:00,50.0,24.0,-100.00,SW,228,3.0,7.0,36,0.00,,,0.00,0.000000,,2013-04-27 09:11:00,
2013-04-27 03:33:00,49.0,23.0,-100.00,WSW,244,4.0,9.0,36,0.00,,,0.00,0.000000,,2013-04-27 09:33:00,
2013-04-27 03:43:00,49.0,23.0,-100.00,WSW,244,4.0,9.0,36,0.00,,,0.00,0.000000,,2013-04-27 09:43:00,
2013-04-27 03:53:00,49.0,23.0,-100.00,WSW,244,4.0,9.0,36,0.00,,,0.00,0.000000,,2013-04-27 09:53:00,
2013-04-27 04:02:00,49.0,23.0,-100.00,WSW,244,4.0,9.0,36,0.00,,,0.00,0.000000,,2013-04-27 10:02:00,
2013-04-27 04:12:00,49.0,23.0,-100.00,WSW,244,4.0,9.0,36,0.00,,,0.00,0.000000,,2013-04-27 10:12:00,
2013-04-27 04:33:00,51.0,21.0,-100.00,West,278,3.0,7.0,31,0.00,,,0.00,0.000000,,2013-04-27 10:33:00,
2013-04-27 04:42:00,51.0,21.0,-100.00,West,278,3.0,7.0,31,0.00,,,0.00,0.000000,,2013-04-27 10:42:00,
2013-04-27 04:52:00,51.0,21.0,-100.00,West,278,3.0,7.0,31,0.00,,,0.00,0.000000,,2013-04-27 10:52:00,
2013-04-27 05:02:00,51.0,21.0,-100.00,West,278,3.0,7.0,31,0.00,,,0.00,0.000000,,2013-04-27 11:02:00,
2013-04-27 05:12:00,51.0,21.0,-100.00,West,278,3.0,7.0,31,0.00,,,0.00,0.000000,,2013-04-27 11:12:00,
2013-04-27 05:42:00,54.0,22.0,-100.00,West,260,11.0,14.0,28,0.00,,,0.00,0.000000,,2013-04-27 11:42:00,
2013-04-27 05:52:00,54.0,22.0,-100.00,West,260,11.0,14.0,28,0.00,,,0.00,0.000000,,2013-04-27 11:52:00,
2013-04-27 06:01:00,54.0,22.0,-100.00,West,260,11.0,14.0,28,0.00,,,0.00,0.000000,,2013-04-27 12:01:00,
2013-04-27 06:11:00,54.0,22.0,-100.00,West,260,11.0,14.0,28,0.00,,,0.00,0.000000,,2013-04-27 12:11:00,
2013-04-27 06:32:00,54.0,21.0,-100.00,West,275,10.0,16.0,27,0.00,,,0.00,4.000000,,2013-04-27 12:32:00,
2013-04-27 06:42:00,54.0,21.0,-100.00,West,275,10.0,16.0,27,0.00,,,0.00,4.000000,,2013-04-27 12:42:00,
2013-04-27 06:52:00,54.0,21.0,-100.00,West,275,10.0,16.0,27,0.00,,,0.00,4.000000,,2013-04-27 12:52:00,
2013-04-27 07:02:00,54.0,21.0,-100.00,West,275,10.0,16.0,27,0.00,,,0.00,4.000000,,2013-04-27 13:02:00,
2013-04-27 07:11:00,54.0,21.0,-100.00,West,275,10.0,16.0,27,0.00,,,0.00,4.000000,,2013-04-27 13:11:00,
2013-04-27 07:42:00,58.0,22.0,-100.00,West,272,10.0,16.0,25,0.00,,,0.00,75.000000,,2013-04-27 13:42:00,
2013-04-27 07:52:00,58.0,22.0,-100.00,West,272,10.0,16.0,25,0.00,,,0.00,75.000000,,2013-04-27 13:52:00,
2013-04-27 08:02:00,58.0,22.0,-100.00,West,272,10.0,16.0,25,0.00,,,0.00,75.000000,,2013-04-27 14:02:00,
2013-04-27 08:11:00,58.0,22.0,-100.00,West,272,10.0,16.0,25,0.00,,,0.00,75.000000,,2013-04-27 14:11:00,
2013-04-27 08:42:00,65.0,23.0,-100.00,WNW,295,6.0,14.0,20,0.00,,,0.00,280.000000,,2013-04-27 14:42:00,
2013-04-27 08:52:00,65.0,23.0,-100.00,WNW,295,6.0,14.0,20,0.00,,,0.00,280.000000,,2013-04-27 14:52:00,
2013-04-27 09:01:00,65.0,23.0,-100.00,WNW,295,6.0,14.0,20,0.00,,,0.00,280.000000,,2013-04-27 15:01:00,
2013-04-27 09:12:00,65.0,23.0,-100.00,WNW,295,6.0,14.0,20,0.00,,,0.00,280.000000,,2013-04-27 15:12:00,
2013-04-27 09:13:00,69.0,22.0,-100.00,WNW,291,8.0,13.0,17,0.00,,,0.00,504.000000,,2013-04-27 15:13:00,
2013-04-27 09:33:00,69.0,22.0,-100.00,WNW,291,8.0,13.0,17,0.00,,,0.00,504.000000,,2013-04-27 15:33:00,
2013-04-27 09:43:00,69.0,22.0,-100.00,WNW,291,8.0,13.0,17,0.00,,,0.00,504.000000,,2013-04-27 15:43:00,
2013-04-27 09:53:00,69.0,22.0,-100.00,WNW,291,8.0,13.0,17,0.00,,,0.00,504.000000,,2013-04-27 15:53:00,
2013-04-27 10:03:00,69.0,22.0,-100.00,WNW,291,8.0,13.0,17,0.00,,,0.00,504.000000,,2013-04-27 16:03:00,
2013-04-27 10:42:00,72.0,23.0,-100.00,NW,305,6.0,15.0,16,0.00,,,0.00,718.000000,,2013-04-27 16:42:00,
2013-04-27 10:53:00,72.0,23.0,-100.00,NW,305,6.0,15.0,16,0.00,,,0.00,718.000000,,2013-04-27 16:53:00,
2013-04-27 11:02:00,72.0,23.0,-100.00,NW,305,6.0,15.0,16,0.00,,,0.00,718.000000,,2013-04-27 17:02:00,
2013-04-27 11:12:00,72.0,23.0,-100.00,NW,305,6.0,15.0,16,0.00,,,0.00,718.000000,,2013-04-27 17:12:00,
2013-04-27 11:32:00,73.0,23.0,-100.00,NW,324,12.0,20.0,15,0.00,,,0.00,882.000000,,2013-04-27 17:32:00,
2013-04-27 11:42:00,73.0,23.0,-100.00,NW,324,12.0,20.0,15,0.00,,,0.00,882.000000,,2013-04-27 17:42:00,
2013-04-27 11:53:00,73.0,23.0,-100.00,NW,324,12.0,20.0,15,0.00,,,0.00,882.000000,,2013-04-27 17:53:00,
2013-04-27 12:02:00,73.0,23.0,-100.00,NW,324,12.0,20.0,15,0.00,,,0.00,882.000000,,2013-04-27 18:02:00,
2013-04-27 12:12:00,73.0,23.0,-100.00,NW,324,12.0,20.0,15,0.00,,,0.00,882.000000,,2013-04-27 18:12:00,
2013-04-27 12:32:00,74.0,25.0,-100.00,WNW,284,7.0,23.0,16,0.00,,,0.00,1031.000000,,2013-04-27 18:32:00,
2013-04-27 12:42:00,74.0,25.0,-100.00,WNW,284,7.0,23.0,16,0.00,,,0.00,1031.000000,,2013-04-27 18:42:00,
2013-04-27 12:52:00,74.0,25.0,-100.00,WNW,284,7.0,23.0,16,0.00,,,0.00,1031.000000,,2013-04-27 18:52:00,
2013-04-27 13:02:00,74.0,25.0,-100.00,WNW,284,7.0,23.0,16,0.00,,,0.00,1031.000000,,2013-04-27 19:02:00,
2013-04-27 13:11:00,74.0,25.0,-100.00,WNW,284,7.0,23.0,16,0.00,,,0.00,1031.000000,,2013-04-27 19:11:00,
2013-04-27 13:42:00,74.0,23.0,-100.00,WNW,285,8.0,19.0,15,0.00,,,0.00,1054.000000,,2013-04-27 19:42:00,
2013-04-27 13:53:00,74.0,23.0,-100.00,WNW,285,8.0,19.0,15,0.00,,,0.00,1054.000000,,2013-04-27 19:53:00,
2013-04-27 14:02:00,74.0,23.0,-100.00,WNW,285,8.0,19.0,15,0.00,,,0.00,1054.000000,,2013-04-27 20:02:00,
2013-04-27 14:11:00,74.0,23.0,-100.00,WNW,285,8.0,19.0,15,0.00,,,0.00,1054.000000,,2013-04-27 20:11:00,
2013-04-27 14:42:00,71.0,23.0,-100.00,WSW,255,11.0,24.0,16,0.00,,,0.00,637.000000,,2013-04-27 20:42:00,
2013-04-27 14:52:00,71.0,23.0,-100.00,WSW,255,11.0,24.0,16,0.00,,,0.00,637.000000,,2013-04-27 20:52:00,
2013-04-27 15:02:00,71.0,23.0,-100.00,WSW,255,11.0,24.0,16,0.00,,,0.00,637.000000,,2013-04-27 21:02:00,
2013-04-27 15:11:00,71.0,23.0,-100.00,WSW,255,11.0,24.0,16,0.00,,,0.00,637.000000,,2013-04-27 21:11:00,
2013-04-27 15:43:00,72.0,26.0,-100.00,WSW,243,8.0,20.0,18,0.00,,,0.00,927.000000,,2013-04-27 21:43:00,
2013-04-27 15:53:00,72.0,26.0,-100.00,WSW,243,8.0,20.0,18,0.00,,,0.00,927.000000,,2013-04-27 21:53:00,
2013-04-27 16:02:00,72.0,26.0,-100.00,WSW,243,8.0,20.0,18,0.00,,,0.00,927.000000,,2013-04-27 22:02:00,
2013-04-27 16:12:00,72.0,26.0,-100.00,WSW,243,8.0,20.0,18,0.00,,,0.00,927.000000,,2013-04-27 22:12:00,
2013-04-27 16:42:00,72.0,27.0,-100.00,WSW,240,9.0,17.0,19,0.00,,,0.00,879.000000,,2013-04-27 22:42:00,
2013-04-27 16:53:00,72.0,27.0,-100.00,WSW,240,9.0,17.0,19,0.00,,,0.00,879.000000,,2013-04-27 22:53:00,
2013-04-27 17:02:00,72.0,27.0,-100.00,WSW,240,9.0,17.0,19,0.00,,,0.00,879.000000,,2013-04-27 23:02:00,
2013-04-27 17:11:00,72.0,27.0,-100.00,WSW,240,9.0,17.0,19,0.00,,,0.00,879.000000,,2013-04-27 23:11:00,
2013-04-27 17:32:00,73.0,27.0,-100.00,WSW,248,7.0,20.0,18,0.00,,,0.00,694.000000,,2013-04-27 23:32:00,
2013-04-27 17:42:00,73.0,27.0,-100.00,WSW,248,7.0,20.0,18,0.00,,,0.00,694.000000,,2013-04-27 23:42:00,
2013-04-27 17:52:00,73.0,27.0,-100.00,WSW,248,7.0,20.0,18,0.00,,,0.00,694.000000,,2013-04-27 23:52:00,
2013-04-27 18:01:00,73.0,27.0,-100.00,WSW,248,7.0,20.0,18,0.00,,,0.00,694.000000,,2013-04-28 00:01:00,
2013-04-27 18:11:00,73.0,27.0,-100.00,WSW,248,7.0,20.0,18,0.00,,,0.00,694.000000,,2013-04-28 00:11:00,
2013-04-27 19:32:00,68.0,27.0,-100.00,SW,214,2.0,6.0,21,-99.99,,,0.00,104.000000,,2013-04-28 01:32:00,
2013-04-27 19:42:00,68.0,27.0,-100.00,SW,214,2.0,6.0,21,-99.99,,,0.00,104.000000,,2013-04-28 01:42:00,
2013-04-27 19:52:00,68.0,27.0,-100.00,SW,214,2.0,6.0,21,-99.99,,,0.00,104.000000,,2013-04-28 01:52:00,
2013-04-27 20:02:00,68.0,27.0,-100.00,SW,214,2.0,6.0,21,-99.99,,,0.00,104.000000,,2013-04-28 02:02:00,
2013-04-27 20:12:00,68.0,27.0,-100.00,SW,214,2.0,6.0,21,-99.99,,,0.00,104.000000,,2013-04-28 02:12:00,
2013-04-27 20:32:00,63.0,27.0,-100.00,SSE,164,1.0,4.0,25,0.00,,,0.00,13.000000,,2013-04-28 02:32:00,
2013-04-27 20:42:00,63.0,27.0,-100.00,SSE,164,1.0,4.0,25,0.00,,,0.00,13.000000,,2013-04-28 02:42:00,
2013-04-27 20:52:00,63.0,27.0,-100.00,SSE,164,1.0,4.0,25,0.00,,,0.00,13.000000,,2013-04-28 02:52:00,
2013-04-27 21:01:00,63.0,27.0,-100.00,SSE,164,1.0,4.0,25,0.00,,,0.00,13.000000,,2013-04-28 03:01:00,
2013-04-27 21:11:00,63.0,27.0,-100.00,SSE,164,1.0,4.0,25,0.00,,,0.00,13.000000,,2013-04-28 03:11:00,
2013-04-27 21:13:00,63.0,28.0,-100.00,SSW,197,5.0,8.0,26,0.00,,,0.00,0.000000,,2013-04-28 03:13:00,
2013-04-27 21:43:00,63.0,28.0,-100.00,SSW,197,5.0,8.0,26,0.00,,,0.00,0.000000,,2013-04-28 03:43:00,
2013-04-27 21:53:00,63.0,28.0,-100.00,SSW,197,5.0,8.0,26,0.00,,,0.00,0.000000,,2013-04-28 03:53:00,
2013-04-27 22:02:00,63.0,28.0,-100.00,SSW,197,5.0,8.0,26,0.00,,,0.00,0.000000,,2013-04-28 04:02:00,
2013-04-27 22:32:00,63.0,28.0,-100.00,SW,226,7.0,12.0,26,0.00,,,0.00,0.000000,,2013-04-28 04:32:00,
2013-04-27 22:43:00,63.0,28.0,-100.00,SW,226,7.0,12.0,26,0.00,,,0.00,0.000000,,2013-04-28 04:43:00,
2013-04-27 22:53:00,63.0,28.0,-100.00,SW,226,7.0,12.0,26,0.00,,,0.00,0.000000,,2013-04-28 04:53:00,
2013-04-27 23:02:00,63.0,28.0,-100.00,SW,226,7.0,12.0,26,0.00,,,0.00,0.000000,,2013-04-28 05:02:00,
2013-04-27 23:12:00,63.0,28.0,-100.00,SW,226,7.0,12.0,26,0.00,,,0.00,0.000000,,2013-04-28 05:12:00,
2013-04-27 23:32:00,61.0,27.0,-100.00,SW,236,5.0,12.0,27,0.00,,,0.00,0.000000,,2013-04-28 05:32:00,
2013-04-27 23:42:00,61.0,27.0,-100.00,SW,236,5.0,12.0,27,0.00,,,0.00,0.000000,,2013-04-28 05:42:00,
2013-04-27 23:52:00,61.0,27.0,-100.00,SW,236,5.0,12.0,27,0.00,,,0.00,0.000000,,2013-04-28 05:52:00,